Yvonne K. — PBLX — position and weather

sailwx.info

Track history (hours):
 
Tides and Currents Weather Stations Pressure Air Temp Water Temp Dewpoint Dewpoint Depression Visibility Wind Speed Wind Dir Waves Ship Positions

Yvonne K.

Last reported at 2017-Apr-24 16:08 UTC. Time now 2017-Apr-25 06:45 UTC.
Position N 37°30' W 009°45'.

Length 90 m; draft 5.6 m.

Type: Cargo ship. MMSI: 244948000.

Date/timePositionNaut miles runAvg speedWind from/ knotsBaromVisibWave heightAir tempDewpointWater temp
2017-Apr-24 16:08N 37°30' W 009°45'14 9.6
2017-Apr-24 14:39N 37°44' W 009°49'2 9.7
2017-Apr-24 14:27N 37°46' W 009°49'20 9.8
2017-Apr-24 12:26N 38°05' W 009°55'4 9.6
2017-Apr-24 12:00N 38°09' W 009°56'5 9.6
2017-Apr-24 11:31N 38°14' W 009°57'5 9.5
2017-Apr-24 11:00N 38°19' W 009°59'5 9.2
2017-Apr-24 10:29N 38°24' W 010°00'4 9.1
2017-Apr-24 10:00N 38°28' W 010°02'4 9.1
2017-Apr-24 09:30N 38°32' W 010°03'5 9.3
2017-Apr-24 09:01N 38°37' W 010°04'5 9.2
2017-Apr-24 08:30N 38°41' W 010°05'5 9.5
2017-Apr-24 08:00N 38°46' W 010°05'5 9.5
2017-Apr-24 07:30N 38°51' W 010°05'5 9.6
2017-Apr-24 07:01N 38°55' W 010°05'510.0
2017-Apr-24 06:30N 39°00' W 010°05'5 9.9
2017-Apr-24 06:00N 39°05' W 010°05'5 9.9
2017-Apr-24 05:30N 39°10' W 010°05'5 9.7
2017-Apr-24 05:01N 39°15' W 010°05'5 9.6
2017-Apr-24 04:30N 39°20' W 010°05'5 9.3
2017-Apr-24 04:01N 39°25' W 010°05'5 9.5
2017-Apr-24 03:30N 39°29' W 010°05'5 9.3
2017-Apr-24 03:00N 39°34' W 010°05'5 9.3
2017-Apr-24 02:30N 39°39' W 010°05'5 9.1
2017-Apr-24 02:01N 39°43' W 010°05'5 9.2
2017-Apr-24 01:31N 39°48' W 010°05'5 9.2
2017-Apr-24 01:00N 39°53' W 010°05'5 9.3
2017-Apr-24 00:30N 39°57' W 010°05'5 9.4
2017-Apr-24 00:01N 40°02' W 010°05'5 9.5
2017-Apr-23 23:31N 40°07' W 010°05'5 9.6
2017-Apr-23 23:01N 40°11' W 010°05'5 9.4
2017-Apr-23 22:30N 40°16' W 010°05'5 9.6
2017-Apr-23 22:00N 40°21' W 010°05'5 9.4
2017-Apr-23 21:31N 40°26' W 010°05'5 9.7
2017-Apr-23 21:00N 40°30' W 010°05'5 9.9
2017-Apr-23 20:31N 40°35' W 010°05'5 9.9
2017-Apr-23 20:00N 40°40' W 010°05'510.0
2017-Apr-23 19:31N 40°45' W 010°05'510.0
2017-Apr-23 19:00N 40°50' W 010°05'7 9.8
2017-Apr-23 18:20N 40°57' W 010°05'310.0
2017-Apr-23 18:00N 41°00' W 010°05'5 9.8
2017-Apr-23 17:31N 41°05' W 010°05'6 9.9
2017-Apr-23 16:57N 41°11' W 010°05'4 9.4
2017-Apr-23 16:30N 41°15' W 010°05'5 9.5
2017-Apr-23 16:00N 41°19' W 010°05'510.3
2017-Apr-23 15:30N 41°25' W 010°05'510.2
2017-Apr-23 15:00N 41°30' W 010°05'1010.0
2017-Apr-23 14:01N 41°40' W 010°05'15 9.7
2017-Apr-23 12:24N 41°55' W 010°05'5 9.6
2017-Apr-23 11:52N 42°00' W 010°05'3 9.6
2017-Apr-23 11:30N 42°04' W 010°05'5 9.4
2017-Apr-23 10:59N 42°09' W 010°05'5 9.6
2017-Apr-23 10:29N 42°14' W 010°06'5 9.6
2017-Apr-23 10:00N 42°18' W 010°06'33 9.5
2017-Apr-23 06:31N 42°51' W 010°06'0 9.5
2017-Apr-23 06:30N 42°52' W 010°06'185 3.6
2017-Apr-21 03:46N 43°43' W 006°02'2 7.5
2017-Apr-21 03:29N 43°44' W 005°59'8 7.3
2017-Apr-21 02:20N 43°45' W 005°48'2 7.2
2017-Apr-21 02:00N 43°44' W 005°44'3 7.1
2017-Apr-21 01:30N 43°44' W 005°40'4 7.0
2017-Apr-21 00:59N 43°43' W 005°35'4 7.6
2017-Apr-21 00:30N 43°43' W 005°30'4 7.1
2017-Apr-20 23:58N 43°43' W 005°24'  
2017-Apr-17 16:57N 43°43' W 005°17'2 5.4
2017-Apr-17 16:30N 43°43' W 005°21'3 5.2
2017-Apr-17 15:52N 43°43' W 005°25'2 5.2
2017-Apr-17 15:30N 43°43' W 005°28'5 5.4
2017-Apr-17 14:36N 43°44' W 005°34'1 5.7
2017-Apr-17 14:31N 43°44' W 005°35'8 8.1
2017-Apr-17 13:30N 43°45' W 005°46'4 8.1
2017-Apr-17 13:00N 43°45' W 005°52'8 8.2
2017-Apr-17 12:03N 43°46' W 006°03'319 6.3
2017-Apr-15 09:28N 39°15' W 009°50'4 8.9
2017-Apr-15 09:00N 39°11' W 009°50'4 8.8
2017-Apr-15 08:30N 39°07' W 009°50'4 8.8
2017-Apr-15 08:00N 39°02' W 009°50'4 8.7
2017-Apr-15 07:30N 38°58' W 009°50'4 9.0
2017-Apr-15 07:00N 38°53' W 009°50'4 8.7
2017-Apr-15 06:30N 38°49' W 009°50'4 8.7
2017-Apr-15 06:00N 38°45' W 009°50'4 8.8
2017-Apr-15 05:30N 38°40' W 009°49'4 8.8
2017-Apr-15 05:00N 38°36' W 009°48'4 8.9
2017-Apr-15 04:30N 38°32' W 009°47'5 8.9
2017-Apr-15 03:59N 38°27' W 009°45'4 8.9
2017-Apr-15 03:30N 38°23' W 009°44'4 8.7
2017-Apr-15 03:00N 38°19' W 009°43'5 8.8
2017-Apr-15 02:26N 38°14' W 009°41'4 8.9
2017-Apr-15 02:00N 38°10' W 009°40'5 9.0
2017-Apr-15 01:27N 38°05' W 009°39'4 9.1
2017-Apr-15 01:00N 38°01' W 009°38'11 9.0
2017-Apr-14 23:45N 37°50' W 009°35'2 8.8
2017-Apr-14 23:29N 37°48' W 009°34'6 8.9
2017-Apr-14 22:48N 37°42' W 009°32'4 8.9
2017-Apr-14 22:24N 37°39' W 009°31'  
Track history (hours):
 
Tides and Currents Weather Stations Pressure Air Temp Water Temp Dewpoint Dewpoint Depression Visibility Wind Speed Wind Dir Waves Ship Positions

Yvonne K.

Last reported at 2017-Apr-24 16:08 UTC. Time now 2017-Apr-25 06:45 UTC.
Position N 37°30' W 009°45'.

Length 90 m; draft 5.6 m.

Type: Cargo ship. MMSI: 244948000.

Date/timePositionNaut miles runAvg speedWind from/ knotsBaromVisibWave heightAir tempDewpointWater temp
2017-Apr-24 16:08N 37°30' W 009°45'14 9.6
2017-Apr-24 14:39N 37°44' W 009°49'2 9.7
2017-Apr-24 14:27N 37°46' W 009°49'20 9.8
2017-Apr-24 12:26N 38°05' W 009°55'4 9.6
2017-Apr-24 12:00N 38°09' W 009°56'5 9.6
2017-Apr-24 11:31N 38°14' W 009°57'5 9.5
2017-Apr-24 11:00N 38°19' W 009°59'5 9.2
2017-Apr-24 10:29N 38°24' W 010°00'4 9.1
2017-Apr-24 10:00N 38°28' W 010°02'4 9.1
2017-Apr-24 09:30N 38°32' W 010°03'5 9.3
2017-Apr-24 09:01N 38°37' W 010°04'5 9.2
2017-Apr-24 08:30N 38°41' W 010°05'5 9.5
2017-Apr-24 08:00N 38°46' W 010°05'5 9.5
2017-Apr-24 07:30N 38°51' W 010°05'5 9.6
2017-Apr-24 07:01N 38°55' W 010°05'510.0
2017-Apr-24 06:30N 39°00' W 010°05'5 9.9
2017-Apr-24 06:00N 39°05' W 010°05'5 9.9
2017-Apr-24 05:30N 39°10' W 010°05'5 9.7
2017-Apr-24 05:01N 39°15' W 010°05'5 9.6
2017-Apr-24 04:30N 39°20' W 010°05'5 9.3
2017-Apr-24 04:01N 39°25' W 010°05'5 9.5
2017-Apr-24 03:30N 39°29' W 010°05'5 9.3
2017-Apr-24 03:00N 39°34' W 010°05'5 9.3
2017-Apr-24 02:30N 39°39' W 010°05'5 9.1
2017-Apr-24 02:01N 39°43' W 010°05'5 9.2
2017-Apr-24 01:31N 39°48' W 010°05'5 9.2
2017-Apr-24 01:00N 39°53' W 010°05'5 9.3
2017-Apr-24 00:30N 39°57' W 010°05'5 9.4
2017-Apr-24 00:01N 40°02' W 010°05'5 9.5
2017-Apr-23 23:31N 40°07' W 010°05'5 9.6
2017-Apr-23 23:01N 40°11' W 010°05'5 9.4
2017-Apr-23 22:30N 40°16' W 010°05'5 9.6
2017-Apr-23 22:00N 40°21' W 010°05'5 9.4
2017-Apr-23 21:31N 40°26' W 010°05'5 9.7
2017-Apr-23 21:00N 40°30' W 010°05'5 9.9
2017-Apr-23 20:31N 40°35' W 010°05'5 9.9
2017-Apr-23 20:00N 40°40' W 010°05'510.0
2017-Apr-23 19:31N 40°45' W 010°05'510.0
2017-Apr-23 19:00N 40°50' W 010°05'7 9.8
2017-Apr-23 18:20N 40°57' W 010°05'310.0
2017-Apr-23 18:00N 41°00' W 010°05'5 9.8
2017-Apr-23 17:31N 41°05' W 010°05'6 9.9
2017-Apr-23 16:57N 41°11' W 010°05'4 9.4
2017-Apr-23 16:30N 41°15' W 010°05'5 9.5
2017-Apr-23 16:00N 41°19' W 010°05'510.3
2017-Apr-23 15:30N 41°25' W 010°05'510.2
2017-Apr-23 15:00N 41°30' W 010°05'1010.0
2017-Apr-23 14:01N 41°40' W 010°05'15 9.7
2017-Apr-23 12:24N 41°55' W 010°05'5 9.6
2017-Apr-23 11:52N 42°00' W 010°05'3 9.6
2017-Apr-23 11:30N 42°04' W 010°05'5 9.4
2017-Apr-23 10:59N 42°09' W 010°05'5 9.6
2017-Apr-23 10:29N 42°14' W 010°06'5 9.6
2017-Apr-23 10:00N 42°18' W 010°06'33 9.5
2017-Apr-23 06:31N 42°51' W 010°06'0 9.5
2017-Apr-23 06:30N 42°52' W 010°06'185 3.6
2017-Apr-21 03:46N 43°43' W 006°02'2 7.5
2017-Apr-21 03:29N 43°44' W 005°59'8 7.3
2017-Apr-21 02:20N 43°45' W 005°48'2 7.2
2017-Apr-21 02:00N 43°44' W 005°44'3 7.1
2017-Apr-21 01:30N 43°44' W 005°40'4 7.0
2017-Apr-21 00:59N 43°43' W 005°35'4 7.6
2017-Apr-21 00:30N 43°43' W 005°30'4 7.1
2017-Apr-20 23:58N 43°43' W 005°24'  
2017-Apr-17 16:57N 43°43' W 005°17'2 5.4
2017-Apr-17 16:30N 43°43' W 005°21'3 5.2
2017-Apr-17 15:52N 43°43' W 005°25'2 5.2
2017-Apr-17 15:30N 43°43' W 005°28'5 5.4
2017-Apr-17 14:36N 43°44' W 005°34'1 5.7
2017-Apr-17 14:31N 43°44' W 005°35'8 8.1
2017-Apr-17 13:30N 43°45' W 005°46'4 8.1
2017-Apr-17 13:00N 43°45' W 005°52'8 8.2
2017-Apr-17 12:03N 43°46' W 006°03'319 6.3
2017-Apr-15 09:28N 39°15' W 009°50'4 8.9
2017-Apr-15 09:00N 39°11' W 009°50'4 8.8
2017-Apr-15 08:30N 39°07' W 009°50'4 8.8
2017-Apr-15 08:00N 39°02' W 009°50'4 8.7
2017-Apr-15 07:30N 38°58' W 009°50'4 9.0
2017-Apr-15 07:00N 38°53' W 009°50'4 8.7
2017-Apr-15 06:30N 38°49' W 009°50'4 8.7
2017-Apr-15 06:00N 38°45' W 009°50'4 8.8
2017-Apr-15 05:30N 38°40' W 009°49'4 8.8
2017-Apr-15 05:00N 38°36' W 009°48'4 8.9
2017-Apr-15 04:30N 38°32' W 009°47'5 8.9
2017-Apr-15 03:59N 38°27' W 009°45'4 8.9
2017-Apr-15 03:30N 38°23' W 009°44'4 8.7
2017-Apr-15 03:00N 38°19' W 009°43'5 8.8
2017-Apr-15 02:26N 38°14' W 009°41'4 8.9
2017-Apr-15 02:00N 38°10' W 009°40'5 9.0
2017-Apr-15 01:27N 38°05' W 009°39'4 9.1
2017-Apr-15 01:00N 38°01' W 009°38'11 9.0
2017-Apr-14 23:45N 37°50' W 009°35'2 8.8
2017-Apr-14 23:29N 37°48' W 009°34'6 8.9
2017-Apr-14 22:48N 37°42' W 009°32'4 8.9
2017-Apr-14 22:24N 37°39' W 009°31'  

Dump ship's entire track history